Time;durP1;ratioP1;P1;durP2;ratioP2;P2;SDS_P1;SDS_P2;PMS_P1;PMS_P2;Temp;Humidity;BMP_temperature;BMP_pressure;BME280_temperature;BME280_humidity;BME280_pressure;Samples;Min_cycle;Max_cycle;Signal;HPM_P1;HPM_P2
2023/12/05 00:02:19;;;;;;;38.63;20.25;;;;;;;;;;5085189;28;20436;-78
2023/12/05 00:05:04;;;;;;;38.83;20.30;;;;;;;;;;5100570;28;20038;-78
2023/12/05 00:07:50;;;;;;;32.97;18.48;;;;;;;;;;5080867;28;20056;-78
2023/12/05 00:10:36;;;;;;;32.97;18.42;;;;;;;;;;5081342;28;20421;-77
2023/12/05 00:13:21;;;;;;;33.80;18.98;;;;;;;;;;5096244;28;20074;-77
2023/12/05 00:16:07;;;;;;;36.83;20.05;;;;;;;;;;5097750;28;20085;-77
2023/12/05 00:18:53;;;;;;;40.05;20.42;;;;;;;;;;5096163;28;20035;-77
2023/12/05 00:21:38;;;;;;;39.88;20.70;;;;;;;;;;5095430;28;20047;-77
2023/12/05 00:24:24;;;;;;;37.83;20.95;;;;;;;;;;5081290;28;20024;-79
2023/12/05 00:27:09;;;;;;;37.33;21.50;;;;;;;;;;5096607;28;20030;-78
2023/12/05 00:29:55;;;;;;;33.63;19.15;;;;;;;;;;5095753;28;20028;-77
2023/12/05 00:32:40;;;;;;;33.88;17.77;;;;;;;;;;5095685;28;20346;-78
2023/12/05 00:35:26;;;;;;;31.80;17.33;;;;;;;;;;5081666;28;20031;-76
2023/12/05 00:38:12;;;;;;;32.53;16.45;;;;;;;;;;5087269;28;20044;-78
2023/12/05 00:41:00;;;;;;;31.08;16.33;;;;;;;;;;5102148;28;20124;-75
2023/12/05 00:43:46;;;;;;;34.53;16.90;;;;;;;;;;5104410;28;20509;-78
2023/12/05 00:46:31;;;;;;;28.63;16.25;;;;;;;;;;5105897;28;20121;-76
2023/12/05 00:49:17;;;;;;;33.95;17.75;;;;;;;;;;5091606;28;20024;-77
2023/12/05 00:52:03;;;;;;;29.50;16.83;;;;;;;;;;5088916;28;20090;-77
2023/12/05 00:54:49;;;;;;;31.67;15.73;;;;;;;;;;5099729;28;20034;-78
2023/12/05 00:57:34;;;;;;;32.90;17.48;;;;;;;;;;5082468;28;20016;-79
2023/12/05 01:00:20;;;;;;;33.05;16.83;;;;;;;;;;5096581;28;20083;-79
2023/12/05 01:03:06;;;;;;;34.00;16.73;;;;;;;;;;5095872;28;20103;-78
2023/12/05 01:05:51;;;;;;;33.78;17.02;;;;;;;;;;5096643;28;20013;-77
2023/12/05 01:08:37;;;;;;;32.00;18.05;;;;;;;;;;5095964;28;20433;-76
2023/12/05 01:11:22;;;;;;;32.08;17.27;;;;;;;;;;5080853;28;20099;-80
2023/12/05 01:14:08;;;;;;;32.17;17.95;;;;;;;;;;5095924;28;20402;-78
2023/12/05 01:16:53;;;;;;;36.33;18.33;;;;;;;;;;5095558;28;20044;-78
2023/12/05 01:19:39;;;;;;;36.05;17.85;;;;;;;;;;5082264;28;20035;-79
2023/12/05 01:22:25;;;;;;;31.95;17.65;;;;;;;;;;5095868;28;20024;-77
2023/12/05 01:25:11;;;;;;;38.70;18.08;;;;;;;;;;5095504;28;20039;-77
2023/12/05 01:27:56;;;;;;;32.72;17.23;;;;;;;;;;5095176;28;20111;-77
2023/12/05 01:30:42;;;;;;;32.15;16.48;;;;;;;;;;5094882;28;20028;-79
2023/12/05 01:33:28;;;;;;;35.15;17.83;;;;;;;;;;5095309;28;20024;-76
2023/12/05 01:36:13;;;;;;;33.25;16.75;;;;;;;;;;5080733;28;20012;-78
2023/12/05 01:38:59;;;;;;;32.10;17.02;;;;;;;;;;5095731;28;20444;-78
2023/12/05 01:41:44;;;;;;;29.90;16.35;;;;;;;;;;5080545;28;20081;-76
2023/12/05 01:44:30;;;;;;;40.88;17.90;;;;;;;;;;5097807;28;20027;-79
2023/12/05 01:47:16;;;;;;;31.88;16.40;;;;;;;;;;5099566;28;20035;-78
2023/12/05 01:50:03;;;;;;;28.23;16.00;;;;;;;;;;5098918;28;20024;-76
2023/12/05 01:52:51;;;;;;;26.77;15.57;;;;;;;;;;5099956;28;20367;-78
2023/12/05 01:55:37;;;;;;;38.42;16.88;;;;;;;;;;5085669;28;20024;-78
2023/12/05 01:58:22;;;;;;;31.05;16.70;;;;;;;;;;5083030;28;20024;-78
2023/12/05 02:01:10;;;;;;;28.80;15.93;;;;;;;;;;5084855;28;20081;-78
2023/12/05 02:03:56;;;;;;;31.17;16.55;;;;;;;;;;5098731;28;20355;-76
2023/12/05 02:06:41;;;;;;;31.15;15.00;;;;;;;;;;5084562;28;20035;-79
2023/12/05 02:09:27;;;;;;;29.05;16.08;;;;;;;;;;5097348;28;20020;-78
2023/12/05 02:12:12;;;;;;;30.08;15.68;;;;;;;;;;5083934;28;20078;-78
2023/12/05 02:14:58;;;;;;;29.95;15.57;;;;;;;;;;5098487;28;20048;-78
2023/12/05 02:18:02;;;;;;;28.40;14.77;;;;;;;;;;5098726;28;20020;-76
2023/12/05 02:21:03;;;;;;;35.05;16.90;;;;;;;;;;5098636;28;20015;-78
2023/12/05 02:23:52;;;;;;;27.35;15.18;;;;;;;;;;5085119;28;20066;-79
2023/12/05 02:26:53;;;;;;;29.40;14.75;;;;;;;;;;5098557;28;20386;-78
2023/12/05 02:29:51;;;;;;;26.60;14.90;;;;;;;;;;5096665;28;20042;-77
2023/12/05 02:32:37;;;;;;;27.25;14.50;;;;;;;;;;5084013;28;20440;-74
2023/12/05 02:35:22;;;;;;;28.73;14.80;;;;;;;;;;5097279;28;20103;-74
2023/12/05 02:38:31;;;;;;;29.83;15.70;;;;;;;;;;5096224;28;20357;-76
2023/12/05 02:41:21;;;;;;;31.13;15.90;;;;;;;;;;5097504;28;20089;-75
2023/12/05 02:44:15;;;;;;;28.15;15.07;;;;;;;;;;5081588;28;20020;-77
2023/12/05 02:47:01;;;;;;;31.42;14.93;;;;;;;;;;5083384;28;20020;-76
2023/12/05 02:49:47;;;;;;;30.23;15.93;;;;;;;;;;5084096;28;20016;-76
2023/12/05 02:52:33;;;;;;;30.77;15.85;;;;;;;;;;5097824;28;20399;-77
2023/12/05 02:55:18;;;;;;;26.20;14.45;;;;;;;;;;5084007;28;20391;-77
2023/12/05 02:58:04;;;;;;;29.85;15.05;;;;;;;;;;5082879;28;20047;-77
2023/12/05 03:00:50;;;;;;;24.35;14.10;;;;;;;;;;5083391;28;20035;-78
2023/12/05 03:03:35;;;;;;;29.67;15.00;;;;;;;;;;5097967;28;20039;-76
2023/12/05 03:06:21;;;;;;;27.45;14.40;;;;;;;;;;5097917;28;20020;-77
2023/12/05 03:09:07;;;;;;;27.70;14.35;;;;;;;;;;5097769;28;20162;-77
2023/12/05 03:11:52;;;;;;;25.98;14.23;;;;;;;;;;5097258;28;20024;-77
2023/12/05 03:14:38;;;;;;;22.45;12.63;;;;;;;;;;5083310;28;20008;-77
2023/12/05 03:17:24;;;;;;;26.27;13.13;;;;;;;;;;5082528;28;20107;-78
2023/12/05 03:20:10;;;;;;;25.10;12.85;;;;;;;;;;5097840;28;20016;-76
2023/12/05 03:22:56;;;;;;;27.88;13.38;;;;;;;;;;5098533;28;20016;-76
2023/12/05 03:25:41;;;;;;;24.08;13.40;;;;;;;;;;5099563;28;20064;-76
2023/12/05 03:28:27;;;;;;;24.88;13.23;;;;;;;;;;5097362;28;20030;-77
2023/12/05 03:31:12;;;;;;;24.27;13.50;;;;;;;;;;5097717;28;20039;-75
2023/12/05 03:33:58;;;;;;;22.80;12.45;;;;;;;;;;5097266;28;20031;-76
2023/12/05 03:36:44;;;;;;;24.75;13.75;;;;;;;;;;5082908;28;20099;-76
2023/12/05 03:39:29;;;;;;;23.15;13.35;;;;;;;;;;5082394;28;20062;-75
2023/12/05 03:42:15;;;;;;;24.45;13.93;;;;;;;;;;5097261;28;20023;-76
2023/12/05 03:45:01;;;;;;;27.55;13.10;;;;;;;;;;5082210;28;20069;-76
2023/12/05 03:47:46;;;;;;;21.50;12.43;;;;;;;;;;5097191;28;20044;-76
2023/12/05 03:50:32;;;;;;;24.10;13.38;;;;;;;;;;5096216;28;20040;-74
2023/12/05 03:53:17;;;;;;;27.02;13.73;;;;;;;;;;5082521;28;20023;-76
2023/12/05 03:56:03;;;;;;;23.40;13.10;;;;;;;;;;5096892;28;20012;-76
2023/12/05 03:58:50;;;;;;;23.00;12.80;;;;;;;;;;5082911;28;20022;-75
2023/12/05 04:01:36;;;;;;;27.70;12.77;;;;;;;;;;5081444;28;20452;-74
2023/12/05 04:04:21;;;;;;;23.60;12.85;;;;;;;;;;5082026;28;20028;-74
2023/12/05 04:07:08;;;;;;;24.42;13.32;;;;;;;;;;5096122;28;20030;-76
2023/12/05 04:09:53;;;;;;;25.23;12.75;;;;;;;;;;5096524;28;20096;-75
2023/12/05 04:12:39;;;;;;;26.90;13.35;;;;;;;;;;5096378;28;20035;-76
2023/12/05 04:15:25;;;;;;;26.38;14.13;;;;;;;;;;5096346;28;20012;-75
2023/12/05 04:18:11;;;;;;;24.83;13.52;;;;;;;;;;5096297;28;20054;-76
2023/12/05 04:20:56;;;;;;;26.92;14.52;;;;;;;;;;5081525;28;20372;-76
2023/12/05 04:23:42;;;;;;;24.90;14.48;;;;;;;;;;5096600;28;20086;-75
2023/12/05 04:26:27;;;;;;;31.73;15.68;;;;;;;;;;5081562;28;20020;-75
2023/12/05 04:29:13;;;;;;;27.83;14.93;;;;;;;;;;5096092;28;20012;-76
2023/12/05 04:32:01;;;;;;;30.10;15.40;;;;;;;;;;5095659;28;20020;-76
2023/12/05 04:34:47;;;;;;;29.40;15.73;;;;;;;;;;5095461;28;20020;-76
2023/12/05 04:37:32;;;;;;;27.17;15.27;;;;;;;;;;5095875;28;20084;-76
2023/12/05 04:40:19;;;;;;;31.45;15.52;;;;;;;;;;5095926;28;20342;-76
2023/12/05 04:43:04;;;;;;;31.45;16.00;;;;;;;;;;5095968;28;20074;-75
2023/12/05 04:45:50;;;;;;;30.25;15.25;;;;;;;;;;5096086;28;20463;-76
2023/12/05 04:48:35;;;;;;;29.40;15.20;;;;;;;;;;5080973;28;20023;-75
2023/12/05 04:51:21;;;;;;;30.83;16.25;;;;;;;;;;5095371;28;20048;-74
2023/12/05 04:54:07;;;;;;;33.40;15.68;;;;;;;;;;5096068;28;20081;-74
2023/12/05 04:56:52;;;;;;;31.50;16.17;;;;;;;;;;5095712;28;20022;-74
2023/12/05 04:59:38;;;;;;;27.88;15.35;;;;;;;;;;5095563;28;20027;-73
2023/12/05 05:02:23;;;;;;;33.00;16.38;;;;;;;;;;5095597;28;20119;-74
2023/12/05 05:05:10;;;;;;;34.92;15.77;;;;;;;;;;5095972;28;20020;-73
2023/12/05 05:07:56;;;;;;;32.60;16.58;;;;;;;;;;5094981;28;20466;-75
2023/12/05 05:10:41;;;;;;;31.90;16.92;;;;;;;;;;5095194;28;20036;-73
2023/12/05 05:13:27;;;;;;;32.35;17.35;;;;;;;;;;5094925;28;20085;-77
2023/12/05 05:16:13;;;;;;;36.75;17.92;;;;;;;;;;5095419;28;20017;-77
2023/12/05 05:18:59;;;;;;;30.98;16.70;;;;;;;;;;5081278;28;20428;-76
2023/12/05 05:21:44;;;;;;;36.28;16.85;;;;;;;;;;5080530;28;20024;-76
2023/12/05 05:24:30;;;;;;;37.42;17.95;;;;;;;;;;5095309;28;20019;-76
2023/12/05 05:27:16;;;;;;;40.00;19.52;;;;;;;;;;5080217;28;20038;-75
2023/12/05 05:30:01;;;;;;;41.65;20.15;;;;;;;;;;5094998;28;20020;-76
2023/12/05 05:32:47;;;;;;;41.05;20.60;;;;;;;;;;5081726;28;20024;-78
2023/12/05 05:35:33;;;;;;;34.13;18.17;;;;;;;;;;5095256;28;20095;-78
2023/12/05 05:38:18;;;;;;;33.92;17.42;;;;;;;;;;5095431;28;20017;-77
2023/12/05 05:41:04;;;;;;;35.95;17.70;;;;;;;;;;5080649;28;20444;-77
2023/12/05 05:43:50;;;;;;;43.80;20.10;;;;;;;;;;5095652;28;20043;-76
2023/12/05 05:46:36;;;;;;;48.85;22.08;;;;;;;;;;5095428;28;20024;-77
2023/12/05 05:49:21;;;;;;;37.92;19.95;;;;;;;;;;5094586;28;20031;-77
2023/12/05 05:52:07;;;;;;;40.92;20.55;;;;;;;;;;5094556;28;20082;-76
2023/12/05 05:54:52;;;;;;;53.70;23.40;;;;;;;;;;5093976;28;20027;-76
2023/12/05 05:57:38;;;;;;;55.35;25.20;;;;;;;;;;5080433;28;20070;-78
2023/12/05 06:00:24;;;;;;;49.65;24.73;;;;;;;;;;5096799;28;20016;-77
2023/12/05 06:03:10;;;;;;;55.13;27.58;;;;;;;;;;5080752;28;20448;-77
2023/12/05 06:05:57;;;;;;;56.15;27.15;;;;;;;;;;5095668;28;20038;-78
2023/12/05 06:08:43;;;;;;;50.53;26.77;;;;;;;;;;5079598;28;20069;-78
2023/12/05 06:11:28;;;;;;;50.80;23.88;;;;;;;;;;5080601;28;20137;-77
2023/12/05 06:14:14;;;;;;;43.08;23.13;;;;;;;;;;5094346;28;20020;-77
2023/12/05 06:17:00;;;;;;;47.67;23.65;;;;;;;;;;5095033;28;20136;-76
2023/12/05 06:19:45;;;;;;;54.90;22.30;;;;;;;;;;5093252;28;20024;-76
2023/12/05 06:22:31;;;;;;;49.03;23.77;;;;;;;;;;5094286;28;20052;-77
2023/12/05 06:25:17;;;;;;;55.53;23.90;;;;;;;;;;5094925;28;20066;-76
2023/12/05 06:28:02;;;;;;;52.72;23.98;;;;;;;;;;5079701;28;20073;-77
2023/12/05 06:30:48;;;;;;;44.67;23.15;;;;;;;;;;5081733;28;20031;-76
2023/12/05 06:33:33;;;;;;;49.05;23.55;;;;;;;;;;5098349;28;20020;-77
2023/12/05 06:36:19;;;;;;;53.28;23.20;;;;;;;;;;5083630;28;20020;-76
2023/12/05 06:39:08;;;;;;;44.80;22.58;;;;;;;;;;5098634;28;20017;-78
2023/12/05 06:41:53;;;;;;;43.65;22.45;;;;;;;;;;5097891;28;20084;-76
2023/12/05 06:44:39;;;;;;;45.08;23.17;;;;;;;;;;5098538;28;20077;-76
2023/12/05 06:47:24;;;;;;;46.92;22.42;;;;;;;;;;5097850;28;20032;-76
2023/12/05 06:50:13;;;;;;;45.47;22.67;;;;;;;;;;5083210;28;20020;-78
2023/12/05 06:52:59;;;;;;;49.17;23.40;;;;;;;;;;5083300;28;20026;-76
2023/12/05 06:55:47;;;;;;;46.78;23.23;;;;;;;;;;5085194;28;20425;-76
2023/12/05 06:58:33;;;;;;;49.25;23.45;;;;;;;;;;5098097;28;20476;-76
2023/12/05 07:01:18;;;;;;;54.42;25.75;;;;;;;;;;5097781;28;20191;-77
2023/12/05 07:04:04;;;;;;;60.85;27.50;;;;;;;;;;5098035;28;20020;-76
2023/12/05 07:06:50;;;;;;;61.20;28.27;;;;;;;;;;5084498;28;20020;-75
2023/12/05 07:09:36;;;;;;;47.42;25.30;;;;;;;;;;5084774;28;20042;-75
2023/12/05 07:12:22;;;;;;;48.25;23.92;;;;;;;;;;5084042;28;20027;-77
2023/12/05 07:15:08;;;;;;;52.92;25.08;;;;;;;;;;5098202;28;20092;-76
2023/12/05 07:17:53;;;;;;;45.30;23.20;;;;;;;;;;5098694;28;20042;-77
2023/12/05 07:20:39;;;;;;;51.42;23.85;;;;;;;;;;5100009;28;20471;-75
2023/12/05 07:23:25;;;;;;;51.15;24.17;;;;;;;;;;5105339;28;20016;-74
2023/12/05 07:26:10;;;;;;;46.60;23.15;;;;;;;;;;5105840;28;20016;-76
2023/12/05 07:28:56;;;;;;;48.83;22.38;;;;;;;;;;5099203;28;20039;-75
2023/12/05 07:31:42;;;;;;;39.38;20.83;;;;;;;;;;5083716;28;20145;-75
2023/12/05 07:34:27;;;;;;;39.15;20.50;;;;;;;;;;5097029;28;20038;-74
2023/12/05 07:37:13;;;;;;;41.42;19.10;;;;;;;;;;5093218;28;20008;-79
2023/12/05 07:39:59;;;;;;;37.47;19.63;;;;;;;;;;5096597;28;20012;-75
2023/12/05 07:42:44;;;;;;;37.40;19.73;;;;;;;;;;5108578;28;20043;-78
2023/12/05 07:45:30;;;;;;;34.55;19.25;;;;;;;;;;5113187;28;20107;-77
2023/12/05 07:48:15;;;;;;;35.00;18.65;;;;;;;;;;5113773;28;20020;-78
2023/12/05 07:51:01;;;;;;;40.00;19.08;;;;;;;;;;5114200;28;20051;-77
2023/12/05 07:53:48;;;;;;;39.97;19.52;;;;;;;;;;5114861;28;20016;-78
2023/12/05 07:56:34;;;;;;;37.33;19.05;;;;;;;;;;5099184;28;20012;-77
2023/12/05 07:59:19;;;;;;;36.47;19.48;;;;;;;;;;5109815;28;20253;-79
2023/12/05 08:02:06;;;;;;;37.65;19.00;;;;;;;;;;5091970;28;20408;-79
2023/12/05 08:04:52;;;;;;;38.30;19.83;;;;;;;;;;5099278;28;20066;-78
2023/12/05 08:07:38;;;;;;;39.33;19.27;;;;;;;;;;5110762;28;20018;-79
2023/12/05 08:10:23;;;;;;;36.15;19.38;;;;;;;;;;5091642;28;20332;-78
2023/12/05 08:13:09;;;;;;;46.42;18.65;;;;;;;;;;5101194;28;20017;-81
2023/12/05 08:15:55;;;;;;;36.47;18.70;;;;;;;;;;5087453;28;20102;-80
2023/12/05 08:18:40;;;;;;;34.30;19.55;;;;;;;;;;5099818;28;20030;-79
2023/12/05 08:21:26;;;;;;;34.53;18.42;;;;;;;;;;5099838;28;20035;-80
2023/12/05 08:24:11;;;;;;;33.42;17.48;;;;;;;;;;5085088;28;20375;-79
2023/12/05 08:26:58;;;;;;;39.95;18.00;;;;;;;;;;5096754;28;20016;-76
2023/12/05 08:29:44;;;;;;;33.25;17.42;;;;;;;;;;5100797;28;20042;-77
2023/12/05 08:32:30;;;;;;;35.72;18.30;;;;;;;;;;5101027;28;20019;-76
2023/12/05 08:35:16;;;;;;;33.85;18.88;;;;;;;;;;5115336;28;20020;-77
2023/12/05 08:38:01;;;;;;;35.80;18.55;;;;;;;;;;5101172;28;20021;-77
2023/12/05 08:40:47;;;;;;;31.85;16.65;;;;;;;;;;5116035;28;20027;-77
2023/12/05 08:43:32;;;;;;;35.13;18.60;;;;;;;;;;5111280;28;20020;-76
2023/12/05 08:46:18;;;;;;;42.22;19.42;;;;;;;;;;5114566;28;20423;-77
2023/12/05 08:49:03;;;;;;;37.65;18.70;;;;;;;;;;5116161;28;20027;-76
2023/12/05 08:51:49;;;;;;;41.13;18.77;;;;;;;;;;5114300;28;20078;-78
2023/12/05 08:54:35;;;;;;;38.50;19.10;;;;;;;;;;5099216;28;20420;-80
2023/12/05 08:57:20;;;;;;;35.47;20.08;;;;;;;;;;5102798;28;20114;-78
2023/12/05 09:00:06;;;;;;;36.15;19.05;;;;;;;;;;5087507;28;20054;-79
2023/12/05 09:02:53;;;;;;;34.97;18.80;;;;;;;;;;5088433;28;20031;-80
2023/12/05 09:05:39;;;;;;;37.22;19.35;;;;;;;;;;5100570;28;20039;-78
2023/12/05 09:08:24;;;;;;;34.17;18.02;;;;;;;;;;5104382;28;20361;-80
2023/12/05 09:11:11;;;;;;;32.05;18.58;;;;;;;;;;5084860;28;20463;-80
2023/12/05 09:13:58;;;;;;;33.80;19.27;;;;;;;;;;5099888;28;20020;-78
2023/12/05 09:16:44;;;;;;;30.42;17.42;;;;;;;;;;5083887;28;20027;-80
2023/12/05 09:19:30;;;;;;;38.92;19.10;;;;;;;;;;5082084;28;20081;-79
2023/12/05 09:22:16;;;;;;;35.42;19.10;;;;;;;;;;5097343;28;20032;-78
2023/12/05 09:25:02;;;;;;;36.47;18.80;;;;;;;;;;5096367;28;20053;-79
2023/12/05 09:27:48;;;;;;;54.00;20.17;;;;;;;;;;5096244;28;20085;-79
2023/12/05 09:30:34;;;;;;;31.27;18.15;;;;;;;;;;5095453;28;20075;-79
2023/12/05 09:33:20;;;;;;;34.70;18.23;;;;;;;;;;5096834;28;20365;-79
2023/12/05 09:36:06;;;;;;;35.28;18.80;;;;;;;;;;5096848;28;20039;-80
2023/12/05 09:38:51;;;;;;;40.38;20.45;;;;;;;;;;5097006;28;20084;-79
2023/12/05 09:41:46;;;;;;;56.00;21.27;;;;;;;;;;5095868;28;20027;-79
2023/12/05 09:44:35;;;;;;;37.65;20.45;;;;;;;;;;5096586;28;20424;-78
2023/12/05 09:47:21;;;;;;;43.65;22.52;;;;;;;;;;5083343;28;20107;-79
2023/12/05 09:50:07;;;;;;;40.00;23.38;;;;;;;;;;5082746;28;20055;-79
2023/12/05 09:52:54;;;;;;;45.28;24.70;;;;;;;;;;5083359;28;20110;-79
2023/12/05 09:55:39;;;;;;;47.05;25.65;;;;;;;;;;5096878;28;20153;-80
2023/12/05 09:58:25;;;;;;;49.40;25.38;;;;;;;;;;5097692;28;20020;-80
2023/12/05 10:01:15;;;;;;;50.28;26.27;;;;;;;;;;5080534;28;20398;-79
2023/12/05 10:04:01;;;;;;;53.13;26.85;;;;;;;;;;5082814;28;20076;-80
2023/12/05 10:06:47;;;;;;;45.35;24.52;;;;;;;;;;5103648;28;20024;-79
2023/12/05 10:09:33;;;;;;;45.85;24.17;;;;;;;;;;5104806;28;20509;-79
2023/12/05 10:12:18;;;;;;;46.17;24.83;;;;;;;;;;5101883;28;20360;-79
2023/12/05 10:15:04;;;;;;;41.47;23.30;;;;;;;;;;5086766;28;20034;-80
2023/12/05 10:17:50;;;;;;;39.30;21.15;;;;;;;;;;5086963;28;20373;-79
2023/12/05 10:20:38;;;;;;;42.60;21.38;;;;;;;;;;5101166;28;20036;-79
2023/12/05 10:23:24;;;;;;;40.83;21.75;;;;;;;;;;5087871;28;20024;-78
2023/12/05 10:26:09;;;;;;;39.30;21.77;;;;;;;;;;5087486;28;20510;-79
2023/12/05 10:28:55;;;;;;;41.90;19.83;;;;;;;;;;5104109;28;20027;-79
2023/12/05 10:31:41;;;;;;;37.67;21.25;;;;;;;;;;5084138;28;20016;-80
2023/12/05 10:34:27;;;;;;;37.35;19.92;;;;;;;;;;5084960;28;20091;-79
2023/12/05 10:37:13;;;;;;;34.90;19.35;;;;;;;;;;5100029;28;20016;-77
2023/12/05 10:39:58;;;;;;;31.25;18.90;;;;;;;;;;5098621;28;20088;-74
2023/12/05 10:42:44;;;;;;;34.15;18.73;;;;;;;;;;5097238;28;20020;-75
2023/12/05 10:45:29;;;;;;;31.23;18.50;;;;;;;;;;5099163;28;20026;-75
2023/12/05 10:48:16;;;;;;;33.70;18.60;;;;;;;;;;5098875;28;20383;-76
2023/12/05 10:51:01;;;;;;;33.67;18.77;;;;;;;;;;5085650;28;20112;-76
2023/12/05 10:53:47;;;;;;;31.10;17.75;;;;;;;;;;5098725;28;20016;-75
2023/12/05 10:56:33;;;;;;;28.92;16.98;;;;;;;;;;5096469;28;20399;-74
2023/12/05 10:59:19;;;;;;;34.45;18.70;;;;;;;;;;5098304;28;20028;-73
2023/12/05 11:02:22;;;;;;;32.95;17.20;;;;;;;;;;5083143;28;20078;-73
2023/12/05 11:05:08;;;;;;;27.15;16.48;;;;;;;;;;5083830;28;20046;-74
2023/12/05 11:07:55;;;;;;;27.88;15.73;;;;;;;;;;5097877;28;20325;-75
2023/12/05 11:10:40;;;;;;;27.48;15.68;;;;;;;;;;5097630;28;20455;-74
2023/12/05 11:13:27;;;;;;;27.17;15.98;;;;;;;;;;5097528;28;20032;-73
2023/12/05 11:16:24;;;;;;;24.63;15.30;;;;;;;;;;5096997;28;20016;-75
2023/12/05 11:19:28;;;;;;;30.40;16.17;;;;;;;;;;5097668;28;20059;-74
2023/12/05 11:22:33;;;;;;;29.58;15.32;;;;;;;;;;5097541;28;20085;-75
2023/12/05 11:25:34;;;;;;;32.03;16.45;;;;;;;;;;5083301;28;20032;-75
2023/12/05 11:28:31;;;;;;;34.88;18.40;;;;;;;;;;5083306;28;20098;-76
2023/12/05 11:31:23;;;;;;;32.78;18.92;;;;;;;;;;5097401;28;20035;-76
2023/12/05 11:34:22;;;;;;;36.10;19.13;;;;;;;;;;5098030;28;20024;-76
2023/12/05 11:37:08;;;;;;;37.05;18.88;;;;;;;;;;5097217;28;20031;-74
2023/12/05 11:39:54;;;;;;;37.10;18.73;;;;;;;;;;5097508;28;20335;-72
2023/12/05 11:43:05;;;;;;;32.40;18.67;;;;;;;;;;5096970;28;20494;-76
2023/12/05 11:45:56;;;;;;;36.13;19.17;;;;;;;;;;5097643;28;20055;-74
2023/12/05 11:48:43;;;;;;;32.90;17.92;;;;;;;;;;5097132;28;20020;-76
2023/12/05 11:51:31;;;;;;;40.40;18.92;;;;;;;;;;5097430;28;20130;-75
2023/12/05 11:54:17;;;;;;;34.03;18.50;;;;;;;;;;5080958;28;20402;-73
2023/12/05 11:57:09;;;;;;;34.00;18.67;;;;;;;;;;5097074;28;20016;-73
2023/12/05 11:59:56;;;;;;;36.95;19.50;;;;;;;;;;5082865;28;20081;-72
2023/12/05 12:02:42;;;;;;;37.25;20.20;;;;;;;;;;5096960;28;20039;-74
2023/12/05 12:05:28;;;;;;;34.85;18.63;;;;;;;;;;5094837;28;20028;-73
2023/12/05 12:08:15;;;;;;;39.05;19.45;;;;;;;;;;5096540;28;20074;-72
2023/12/05 12:11:01;;;;;;;35.55;18.75;;;;;;;;;;5094887;28;20330;-73
2023/12/05 12:13:48;;;;;;;35.95;19.38;;;;;;;;;;5096373;28;20043;-72
2023/12/05 12:16:33;;;;;;;32.85;18.60;;;;;;;;;;5096423;28;20062;-73
2023/12/05 12:19:19;;;;;;;31.73;19.10;;;;;;;;;;5097071;28;20031;-74
2023/12/05 12:22:05;;;;;;;33.45;18.45;;;;;;;;;;5096039;28;20027;-72
2023/12/05 12:25:02;;;;;;;34.78;19.73;;;;;;;;;;5095047;28;20120;-74
2023/12/05 12:27:48;;;;;;;36.20;18.85;;;;;;;;;;5080946;28;20012;-73
2023/12/05 12:30:36;;;;;;;43.70;20.65;;;;;;;;;;5095884;28;20043;-73
2023/12/05 12:33:22;;;;;;;38.97;20.50;;;;;;;;;;5096128;28;20022;-73
2023/12/05 12:36:09;;;;;;;40.78;21.05;;;;;;;;;;5095146;28;20016;-72
2023/12/05 12:38:55;;;;;;;35.72;19.88;;;;;;;;;;5094029;28;20024;-73
2023/12/05 12:41:41;;;;;;;33.75;19.77;;;;;;;;;;5095888;28;20436;-73
2023/12/05 12:44:28;;;;;;;34.70;19.48;;;;;;;;;;5080950;28;20051;-73
2023/12/05 12:47:15;;;;;;;35.17;20.08;;;;;;;;;;5095706;28;20016;-73
2023/12/05 12:50:02;;;;;;;40.55;19.25;;;;;;;;;;5095577;28;20451;-73
2023/12/05 12:52:48;;;;;;;44.97;19.90;;;;;;;;;;5081032;28;20074;-73
2023/12/05 12:55:33;;;;;;;36.15;19.35;;;;;;;;;;5094213;28;20016;-74
2023/12/05 12:58:26;;;;;;;34.83;19.13;;;;;;;;;;5094705;28;20357;-74
2023/12/05 13:01:13;;;;;;;36.67;20.27;;;;;;;;;;5094147;28;20022;-73
2023/12/05 13:03:59;;;;;;;44.78;22.20;;;;;;;;;;5094183;28;20385;-74
2023/12/05 13:06:47;;;;;;;45.10;19.83;;;;;;;;;;5078004;28;20414;-73
2023/12/05 13:09:34;;;;;;;36.47;20.52;;;;;;;;;;5094793;28;20436;-73
2023/12/05 13:12:23;;;;;;;47.22;20.15;;;;;;;;;;5093755;28;20055;-73
2023/12/05 13:15:09;;;;;;;36.22;19.63;;;;;;;;;;5094061;28;20028;-72
2023/12/05 13:18:04;;;;;;;40.00;18.92;;;;;;;;;;5089693;28;20034;-70
2023/12/05 13:20:52;;;;;;;36.80;20.23;;;;;;;;;;5092086;28;20364;-72
2023/12/05 13:23:38;;;;;;;38.40;20.77;;;;;;;;;;5093284;28;20409;-72
2023/12/05 13:26:23;;;;;;;33.15;19.33;;;;;;;;;;5093844;28;20024;-71
2023/12/05 13:29:09;;;;;;;37.75;19.13;;;;;;;;;;5078393;28;20034;-72
2023/12/05 13:31:55;;;;;;;40.30;20.88;;;;;;;;;;5093169;28;20023;-72
2023/12/05 13:34:40;;;;;;;38.42;21.08;;;;;;;;;;5077948;28;20081;-72
2023/12/05 13:37:26;;;;;;;40.25;21.88;;;;;;;;;;5092020;28;20425;-72
2023/12/05 13:40:13;;;;;;;39.10;21.25;;;;;;;;;;5077208;28;20123;-72
2023/12/05 13:42:59;;;;;;;37.53;21.55;;;;;;;;;;5093297;28;20376;-70
2023/12/05 13:45:44;;;;;;;46.90;21.42;;;;;;;;;;5091785;28;20024;-72
2023/12/05 13:48:31;;;;;;;39.47;21.38;;;;;;;;;;5094141;28;20111;-71
2023/12/05 13:51:16;;;;;;;44.25;21.30;;;;;;;;;;5052422;28;1152998;-71
2023/12/05 13:54:02;;;;;;;40.25;19.88;;;;;;;;;;5077832;28;20036;-72
2023/12/05 13:56:48;;;;;;;41.33;20.60;;;;;;;;;;5092927;28;20032;-72
2023/12/05 13:59:34;;;;;;;42.03;20.30;;;;;;;;;;5091864;28;20039;-71
2023/12/05 14:02:20;;;;;;;37.30;20.15;;;;;;;;;;5092562;28;20020;-72
2023/12/05 14:05:05;;;;;;;36.05;20.17;;;;;;;;;;5092299;28;20019;-72
2023/12/05 14:07:51;;;;;;;37.83;20.88;;;;;;;;;;5092211;28;20044;-71
2023/12/05 14:10:37;;;;;;;40.38;20.73;;;;;;;;;;5093514;28;20488;-72
2023/12/05 14:13:23;;;;;;;38.38;21.20;;;;;;;;;;5092692;28;20051;-71
2023/12/05 14:16:08;;;;;;;40.97;22.48;;;;;;;;;;5094130;28;20361;-72
2023/12/05 14:18:54;;;;;;;42.45;22.48;;;;;;;;;;5093697;28;20020;-72
2023/12/05 14:21:40;;;;;;;42.97;23.35;;;;;;;;;;5094297;28;20028;-71
2023/12/05 14:24:25;;;;;;;48.15;24.48;;;;;;;;;;5094540;28;20406;-71
2023/12/05 14:27:11;;;;;;;48.42;24.33;;;;;;;;;;5079534;28;20024;-72
2023/12/05 14:29:57;;;;;;;43.47;23.92;;;;;;;;;;5093310;28;20020;-72
2023/12/05 14:32:42;;;;;;;46.88;24.77;;;;;;;;;;5079519;28;20154;-73
2023/12/05 14:35:28;;;;;;;45.45;24.98;;;;;;;;;;5093386;28;20024;-73
2023/12/05 14:38:16;;;;;;;51.90;26.30;;;;;;;;;;5079367;28;20057;-74
2023/12/05 14:41:02;;;;;;;46.50;24.58;;;;;;;;;;5080153;28;20016;-74
2023/12/05 14:43:47;;;;;;;45.67;24.90;;;;;;;;;;5079013;28;20434;-73
2023/12/05 14:46:33;;;;;;;47.70;24.95;;;;;;;;;;5094214;28;20027;-73
2023/12/05 14:49:19;;;;;;;49.38;24.73;;;;;;;;;;5094648;28;20036;-73
2023/12/05 14:52:05;;;;;;;48.20;24.40;;;;;;;;;;5095585;28;20048;-73
2023/12/05 14:54:51;;;;;;;49.63;25.02;;;;;;;;;;5096550;28;20039;-73
2023/12/05 14:57:37;;;;;;;44.38;23.50;;;;;;;;;;5096161;28;20052;-72
2023/12/05 15:00:22;;;;;;;47.10;24.13;;;;;;;;;;5096797;28;20020;-74
2023/12/05 15:03:08;;;;;;;42.28;23.20;;;;;;;;;;5096033;28;20111;-73
2023/12/05 15:05:53;;;;;;;49.42;25.05;;;;;;;;;;5095650;28;20008;-74
2023/12/05 15:08:39;;;;;;;44.38;23.30;;;;;;;;;;5096280;28;20027;-73
2023/12/05 15:11:37;;;;;;;;;;;;;;;;;;;;;
2023/12/05 15:14:23;;;;;;;46.63;22.85;;;;;;;;;;5096375;28;20103;-73
2023/12/05 15:17:09;;;;;;;45.15;23.63;;;;;;;;;;5095849;28;20349;-71
2023/12/05 15:19:55;;;;;;;44.70;22.85;;;;;;;;;;5096143;28;20031;-72
2023/12/05 15:22:42;;;;;;;50.75;25.85;;;;;;;;;;5095313;28;20054;-74
2023/12/05 15:25:28;;;;;;;59.20;25.63;;;;;;;;;;5094970;28;20042;-75
2023/12/05 15:28:16;;;;;;;44.85;24.00;;;;;;;;;;5095672;28;20506;-73
2023/12/05 15:31:02;;;;;;;48.60;24.55;;;;;;;;;;5094308;28;20078;-74
2023/12/05 15:33:48;;;;;;;45.67;23.75;;;;;;;;;;5080881;28;20020;-74
2023/12/05 15:36:33;;;;;;;44.65;24.27;;;;;;;;;;5095865;28;20016;-73
2023/12/05 15:39:19;;;;;;;54.60;24.30;;;;;;;;;;5095561;28;20023;-74
2023/12/05 15:42:04;;;;;;;49.17;26.02;;;;;;;;;;5093553;28;20123;-74
2023/12/05 15:44:50;;;;;;;58.65;25.23;;;;;;;;;;5096268;28;20047;-73
2023/12/05 15:47:37;;;;;;;52.47;26.80;;;;;;;;;;5093395;28;20081;-73
2023/12/05 15:50:23;;;;;;;54.08;27.17;;;;;;;;;;5094586;28;20040;-74
2023/12/05 15:53:09;;;;;;;46.15;25.52;;;;;;;;;;5094016;28;20027;-74
2023/12/05 15:55:56;;;;;;;46.85;25.38;;;;;;;;;;5095139;28;20032;-74
2023/12/05 15:58:42;;;;;;;54.78;25.92;;;;;;;;;;5097494;28;20024;-74
2023/12/05 16:01:28;;;;;;;49.05;25.30;;;;;;;;;;5096318;28;20025;-73
2023/12/05 16:04:13;;;;;;;47.20;25.40;;;;;;;;;;5082054;28;20026;-73
2023/12/05 16:06:59;;;;;;;52.20;28.20;;;;;;;;;;5097028;28;20024;-74
2023/12/05 16:09:45;;;;;;;62.67;26.48;;;;;;;;;;5096524;28;20395;-72
2023/12/05 16:12:31;;;;;;;54.92;28.45;;;;;;;;;;5081602;28;20046;-72